LGB weather

Long Beach /Daugherty Field/ Airport
Long Beach, California, United States

Public forecast

Using degrees Fahrenheit for public forecast. Weather courtesy of forecast.io.

METAR (pilot weather report)

Retrieved 2019/03/19 19:53 UTC (52 minutes ago):

KLGB 191953Z 18008G15KT 8SM OVC014 16/11 A2999 RMK AO2 SLP154 T01610111

TAF (pilot weather forecast)

Retrieved 2019/03/19 18:40 UTC (2 hours ago):

TAF KLGB 191737Z 1918/2018 VRB05KT 5SM HZ OVC010 FM192000 20010KT P6SM BKN120 FM200300 16006KT P6SM BKN100 FM200900 12006KT P6SM VCSH BKN030 OVC050 FM201100 15007KT P6SM -SHRA BKN025 OVC040 FM201500 09006KT P6SM -SHRA BKN020 OVC040